Time;durP1;ratioP1;P1;durP2;ratioP2;P2;SDS_P1;SDS_P2;PMS_P1;PMS_P2;Temp;Humidity;BMP_temperature;BMP_pressure;BME280_temperature;BME280_humidity;BME280_pressure;Samples;Min_cycle;Max_cycle;Signal;HPM_P1;HPM_P2
2022/04/09 00:00:25;;;;;;;3.67;1.83;;;;;20.80;99098.00;;;;2078955;28;20214;-48
2022/04/09 00:01:26;;;;;;;3.27;1.70;;;;;20.80;99115.00;;;;2079233;28;20216;-47
2022/04/09 00:02:26;;;;;;;4.23;2.20;;;;;20.70;99103.00;;;;2079389;28;20589;-47
2022/04/09 00:03:26;;;;;;;4.67;2.00;;;;;20.70;99107.00;;;;2078697;28;20236;-48
2022/04/09 00:04:27;;;;;;;5.80;1.83;;;;;20.80;99109.00;;;;2078458;28;20260;-48
2022/04/09 00:05:27;;;;;;;3.40;1.97;;;;;20.80;99113.00;;;;2081517;28;20647;-48
2022/04/09 00:06:28;;;;;;;4.40;1.80;;;;;20.80;99119.00;;;;2079814;28;20219;-47
2022/04/09 00:07:28;;;;;;;4.73;2.10;;;;;20.70;99124.00;;;;2079021;28;20209;-47
2022/04/09 00:08:28;;;;;;;4.70;2.20;;;;;20.80;99121.00;;;;2084843;28;20227;-48
2022/04/09 00:09:28;;;;;;;5.70;2.17;;;;;20.70;99115.00;;;;2081015;28;20241;-47
2022/04/09 00:10:29;;;;;;;3.23;1.90;;;;;20.70;99128.00;;;;2086151;28;20208;-48
2022/04/09 00:11:29;;;;;;;3.47;2.10;;;;;20.70;99135.00;;;;2086558;28;20216;-48
2022/04/09 00:12:30;;;;;;;3.40;2.03;;;;;20.70;99123.00;;;;2087457;28;20213;-47
2022/04/09 00:13:30;;;;;;;4.10;1.50;;;;;20.70;99132.00;;;;2087452;28;20294;-48
2022/04/09 00:14:30;;;;;;;6.10;1.80;;;;;20.70;99135.00;;;;2087419;28;20209;-48
2022/04/09 00:15:31;;;;;;;4.30;1.73;;;;;20.70;99138.00;;;;2086709;28;20223;-47
2022/04/09 00:16:31;;;;;;;6.23;2.00;;;;;20.70;99133.00;;;;2086663;28;20213;-48
2022/04/09 00:17:42;;;;;;;3.90;1.83;;;;;20.70;99134.00;;;;2087300;28;20232;-47
2022/04/09 00:18:43;;;;;;;2.90;1.70;;;;;20.70;99131.00;;;;2082928;28;20302;-47
2022/04/09 00:19:44;;;;;;;3.40;1.70;;;;;20.70;99144.00;;;;2079055;28;20276;-47
2022/04/09 00:20:44;;;;;;;2.60;1.73;;;;;20.60;99141.00;;;;2078974;28;20217;-47
2022/04/09 00:21:46;;;;;;;4.00;1.87;;;;;20.60;99148.00;;;;2082470;28;20211;-48
2022/04/09 00:22:46;;;;;;;4.25;2.03;;;;;20.60;99139.00;;;;2086384;28;20777;-47
2022/04/09 00:23:46;;;;;;;4.17;2.00;;;;;20.60;99143.00;;;;2080715;28;20217;-48
2022/04/09 00:24:47;;;;;;;3.23;1.57;;;;;20.70;99145.00;;;;2084664;28;20236;-47
2022/04/09 00:25:47;;;;;;;2.87;1.70;;;;;20.60;99151.00;;;;2078244;28;20228;-48
2022/04/09 00:26:47;;;;;;;2.97;1.80;;;;;20.60;99159.00;;;;2078965;28;20217;-48
2022/04/09 00:27:48;;;;;;;4.77;2.00;;;;;20.60;99157.00;;;;2083569;28;20696;-47
2022/04/09 00:28:48;;;;;;;3.53;1.80;;;;;20.60;99155.00;;;;2086607;28;20669;-47
2022/04/09 00:29:48;;;;;;;4.20;2.13;;;;;20.60;99156.00;;;;2086635;28;20251;-47
2022/04/09 00:30:49;;;;;;;5.43;1.60;;;;;20.60;99164.00;;;;2079855;28;20674;-47
2022/04/09 00:31:49;;;;;;;6.00;1.90;;;;;20.60;99160.00;;;;2087343;28;20857;-47
2022/04/09 00:32:49;;;;;;;4.57;1.90;;;;;20.60;99167.00;;;;2087076;28;20677;-47
2022/04/09 00:33:50;;;;;;;6.77;2.03;;;;;20.60;99163.00;;;;2087052;28;20248;-47
2022/04/09 00:34:50;;;;;;;5.83;2.27;;;;;20.60;99167.00;;;;2083297;28;20213;-47
2022/04/09 00:35:50;;;;;;;4.03;1.77;;;;;20.60;99170.00;;;;2078302;28;20690;-48
2022/04/09 00:36:51;;;;;;;7.47;2.50;;;;;20.60;99169.00;;;;2080725;28;20694;-47
2022/04/09 00:37:51;;;;;;;3.90;1.87;;;;;20.60;99170.00;;;;2087216;28;20747;-47
2022/04/09 00:38:51;;;;;;;4.60;2.40;;;;;20.60;99172.00;;;;2087248;28;20689;-47
2022/04/09 00:39:52;;;;;;;4.77;2.50;;;;;20.60;99180.00;;;;2078827;28;20690;-47
2022/04/09 00:40:52;;;;;;;3.73;2.00;;;;;20.60;99176.00;;;;2078708;28;20268;-47
2022/04/09 00:41:53;;;;;;;3.70;2.10;;;;;20.60;99180.00;;;;2078540;28;20455;-47
2022/04/09 00:42:53;;;;;;;6.60;2.40;;;;;20.60;99186.00;;;;2081834;28;20291;-47
2022/04/09 00:43:54;;;;;;;4.80;2.20;;;;;20.60;99178.00;;;;2085761;28;20213;-47
2022/04/09 00:44:55;;;;;;;4.70;2.17;;;;;20.50;99190.00;;;;2078426;28;20790;-47
2022/04/09 00:45:55;;;;;;;4.35;2.45;;;;;20.60;99191.00;;;;2077774;28;20641;-47
2022/04/09 00:46:56;;;;;;;4.53;2.17;;;;;20.60;99183.00;;;;2082014;28;20220;-47
2022/04/09 00:47:56;;;;;;;4.57;2.30;;;;;20.60;99194.00;;;;2077386;28;20296;-48
2022/04/09 00:48:56;;;;;;;5.50;2.80;;;;;20.50;99195.00;;;;2078169;28;20225;-47
2022/04/09 00:49:57;;;;;;;4.97;3.07;;;;;20.60;99214.00;;;;2080232;28;20633;-48
2022/04/09 00:50:58;;;;;;;5.43;2.50;;;;;20.60;99198.00;;;;2078221;28;20609;-47
2022/04/09 00:51:59;;;;;;;6.22;2.72;;;;;20.50;99211.00;;;;2078807;28;20228;-47
2022/04/09 00:53:00;;;;;;;4.97;2.72;;;;;20.50;99200.00;;;;2070110;28;20214;-48
2022/04/09 00:54:00;;;;;;;5.20;2.20;;;;;20.50;99215.00;;;;2061947;28;20665;-47
2022/04/09 00:55:04;;;;;;;5.40;2.63;;;;;20.50;99214.00;;;;2072226;28;20826;-47
2022/04/09 00:56:13;;;;;;;5.53;2.45;;;;;20.60;99212.00;;;;2082070;28;20220;-47
2022/04/09 00:57:13;;;;;;;4.55;2.47;;;;;20.50;99218.00;;;;2086994;28;20721;-47
2022/04/09 00:58:14;;;;;;;4.03;2.20;;;;;20.60;99224.00;;;;2079101;28;20232;-48
2022/04/09 00:59:15;;;;;;;6.85;2.85;;;;;20.50;99228.00;;;;2077904;28;20212;-47
2022/04/09 01:00:15;;;;;;;6.40;2.40;;;;;20.50;99229.00;;;;2069099;28;20213;-47
2022/04/09 01:01:16;;;;;;;6.07;2.20;;;;;20.50;99229.00;;;;2070102;28;20217;-48
2022/04/09 01:02:16;;;;;;;5.70;2.53;;;;;20.50;99223.00;;;;2082628;28;20247;-47
2022/04/09 01:03:18;;;;;;;5.00;2.20;;;;;20.50;99228.00;;;;2086328;28;20213;-47
2022/04/09 01:04:18;;;;;;;4.30;2.40;;;;;20.50;99224.00;;;;2080147;28;20217;-47
2022/04/09 01:05:19;;;;;;;5.17;2.40;;;;;20.50;99232.00;;;;2071994;28;20237;-47
2022/04/09 01:06:19;;;;;;;4.17;2.20;;;;;20.50;99238.00;;;;2065534;28;20313;-47
2022/04/09 01:07:20;;;;;;;5.50;2.30;;;;;20.50;99241.00;;;;2077130;28;20276;-47
2022/04/09 01:08:20;;;;;;;6.13;3.00;;;;;20.50;99245.00;;;;2077416;28;20709;-47
2022/04/09 01:09:20;;;;;;;6.70;2.43;;;;;20.50;99248.00;;;;2069607;28;20244;-47
2022/04/09 01:10:21;;;;;;;7.07;3.07;;;;;20.50;99247.00;;;;2085127;28;20213;-47
2022/04/09 01:11:21;;;;;;;4.90;2.50;;;;;20.50;99248.00;;;;2083255;28;20237;-47
2022/04/09 01:12:21;;;;;;;3.60;2.40;;;;;20.50;99246.00;;;;2085895;28;20216;-47
2022/04/09 01:13:22;;;;;;;6.10;2.73;;;;;20.50;99251.00;;;;2077535;28;20209;-47
2022/04/09 01:14:22;;;;;;;4.10;2.30;;;;;20.50;99253.00;;;;2086250;28;20301;-47
2022/04/09 01:15:22;;;;;;;7.20;3.20;;;;;20.40;99249.00;;;;2086640;28;20242;-47
2022/04/09 01:16:24;;;;;;;3.40;2.10;;;;;20.50;99255.00;;;;2086765;28;20215;-47
2022/04/09 01:17:24;;;;;;;6.28;2.58;;;;;20.20;99265.00;;;;2086635;28;20303;-48
2022/04/09 01:18:25;;;;;;;7.77;2.93;;;;;20.40;99255.00;;;;2087059;28;20920;-47
2022/04/09 01:19:25;;;;;;;6.90;2.97;;;;;20.40;99257.00;;;;2083051;28;20593;-48
2022/04/09 01:20:26;;;;;;;8.43;2.57;;;;;20.40;99254.00;;;;2078622;28;21075;-48
2022/04/09 01:21:26;;;;;;;8.67;3.10;;;;;20.40;99269.00;;;;2078914;28;20581;-48
2022/04/09 01:22:27;;;;;;;7.00;2.80;;;;;20.50;99269.00;;;;2078801;28;20456;-47
2022/04/09 01:23:27;;;;;;;6.07;2.27;;;;;20.40;99262.00;;;;2078580;28;20224;-47
2022/04/09 01:24:28;;;;;;;6.43;2.80;;;;;20.40;99260.00;;;;2078574;28;20222;-48
2022/04/09 01:25:28;;;;;;;6.00;2.70;;;;;20.40;99270.00;;;;2080214;28;20271;-48
2022/04/09 01:26:28;;;;;;;7.37;2.77;;;;;20.40;99274.00;;;;2086973;28;20244;-47
2022/04/09 01:27:28;;;;;;;5.60;2.53;;;;;20.40;99275.00;;;;2083015;28;20214;-47
2022/04/09 01:28:29;;;;;;;4.73;2.40;;;;;20.40;99281.00;;;;2078644;28;20637;-47
2022/04/09 01:29:29;;;;;;;6.90;2.57;;;;;20.40;99277.00;;;;2072750;28;20586;-47
2022/04/09 01:30:30;;;;;;;6.20;2.93;;;;;20.40;99279.00;;;;2069673;28;20245;-48
2022/04/09 01:31:30;;;;;;;8.23;3.23;;;;;20.40;99274.00;;;;2078172;28;20209;-48
2022/04/09 01:32:30;;;;;;;4.80;2.40;;;;;20.40;99281.00;;;;2082916;28;20319;-47
2022/04/09 01:33:31;;;;;;;7.17;2.63;;;;;20.40;99275.00;;;;2080757;28;20213;-47
2022/04/09 01:34:32;;;;;;;5.00;2.77;;;;;20.40;99282.00;;;;2078231;28;20210;-47
2022/04/09 01:35:32;;;;;;;4.53;2.70;;;;;20.40;99271.00;;;;2077595;28;20229;-47
2022/04/09 01:36:33;;;;;;;5.63;2.40;;;;;20.40;99274.00;;;;2085577;28;20216;-47
2022/04/09 01:37:33;;;;;;;5.43;2.53;;;;;20.30;99286.00;;;;2078744;28;20213;-47
2022/04/09 01:38:36;;;;;;;5.20;2.70;;;;;20.30;99282.00;;;;2078430;28;20271;-47
2022/04/09 01:39:36;;;;;;;10.20;2.90;;;;;20.40;99287.00;;;;2079068;28;20213;-47
2022/04/09 01:40:36;;;;;;;4.40;2.33;;;;;20.40;99282.00;;;;2077994;28;20726;-47
2022/04/09 01:41:37;;;;;;;7.80;2.53;;;;;20.30;99293.00;;;;2084156;28;20934;-47
2022/04/09 01:42:37;;;;;;;5.47;2.40;;;;;20.40;99294.00;;;;2085745;28;20266;-47
2022/04/09 01:43:40;;;;;;;6.90;2.93;;;;;20.30;99295.00;;;;2085129;28;20217;-50
2022/04/09 01:44:40;;;;;;;6.05;2.35;;;;;20.30;99299.00;;;;2084596;28;20209;-47
2022/04/09 01:45:41;;;;;;;5.67;2.27;;;;;20.30;99306.00;;;;2087778;28;20220;-48
2022/04/09 01:46:44;;;;;;;5.43;2.67;;;;;20.40;99310.00;;;;2086081;28;20236;-48
2022/04/09 01:47:45;;;;;;;5.07;2.45;;;;;20.30;99286.00;;;;2079843;28;20256;-47
2022/04/09 01:48:45;;;;;;;5.87;2.33;;;;;20.30;99313.00;;;;2080104;28;20244;-47
2022/04/09 01:49:45;;;;;;;7.47;2.60;;;;;20.30;99316.00;;;;2080209;28;20292;-48
2022/04/09 01:50:46;;;;;;;4.73;2.20;;;;;20.30;99319.00;;;;2079269;28;20337;-47
2022/04/09 01:51:49;;;;;;;7.67;3.27;;;;;20.30;99309.00;;;;2083080;28;20229;-47
2022/04/09 01:52:50;;;;;;;5.55;2.60;;;;;20.30;99320.00;;;;2086661;28;20216;-47
2022/04/09 01:53:50;;;;;;;8.60;2.67;;;;;20.30;99321.00;;;;2081465;28;20244;-47
2022/04/09 01:54:50;;;;;;;5.97;2.40;;;;;20.30;99323.00;;;;2084889;28;20206;-47
2022/04/09 01:55:51;;;;;;;5.03;2.40;;;;;20.30;99328.00;;;;2082574;28;20209;-47
2022/04/09 01:56:51;;;;;;;5.27;2.30;;;;;20.30;99332.00;;;;2086937;28;20590;-47
2022/04/09 01:57:52;;;;;;;6.93;2.47;;;;;20.30;99333.00;;;;2087020;28;20209;-47
2022/04/09 01:58:52;;;;;;;4.07;2.20;;;;;20.30;99339.00;;;;2078099;28;20216;-47
2022/04/09 01:59:52;;;;;;;6.40;2.77;;;;;20.30;99326.00;;;;2086772;28;20715;-48
2022/04/09 02:00:58;;;;;;;6.20;2.60;;;;;20.30;99340.00;;;;2087471;28;20224;-48
2022/04/09 02:01:59;;;;;;;3.95;2.45;;;;;20.30;99351.00;;;;2085787;28;20205;-48
2022/04/09 02:02:59;;;;;;;5.47;2.73;;;;;20.30;99345.00;;;;2079553;28;20217;-48
2022/04/09 02:03:59;;;;;;;5.20;2.67;;;;;20.30;99347.00;;;;2086850;28;20223;-47
2022/04/09 02:05:00;;;;;;;4.73;2.40;;;;;20.30;99353.00;;;;2087401;28;20221;-47
2022/04/09 02:06:01;;;;;;;6.40;2.90;;;;;20.30;99342.00;;;;2085966;28;20311;-47
2022/04/09 02:07:01;;;;;;;5.80;2.73;;;;;20.30;99352.00;;;;2083789;28;21002;-47
2022/04/09 02:08:01;;;;;;;6.73;2.50;;;;;20.30;99350.00;;;;2086933;28;20263;-48
2022/04/09 02:09:02;;;;;;;4.80;2.70;;;;;20.30;99352.00;;;;2086805;28;20213;-47
2022/04/09 02:10:03;;;;;;;5.80;2.43;;;;;20.30;99355.00;;;;2081553;28;20692;-47
2022/04/09 02:11:04;;;;;;;5.40;2.85;;;;;20.30;99347.00;;;;2087410;28;20282;-48
2022/04/09 02:12:04;;;;;;;4.40;2.37;;;;;20.30;99354.00;;;;2084110;28;20229;-47
2022/04/09 02:13:11;;;;;;;5.83;2.40;;;;;20.30;99351.00;;;;2083487;28;20220;-47
2022/04/09 02:14:12;;;;;;;4.78;2.30;;;;;20.30;99352.00;;;;2087646;28;20220;-47
2022/04/09 02:15:14;;;;;;;6.00;2.43;;;;;20.30;99355.00;;;;2082719;28;20233;-51
2022/04/09 02:16:14;;;;;;;5.22;2.30;;;;;20.30;99360.00;;;;2080498;28;20683;-47
2022/04/09 02:17:15;;;;;;;4.60;2.17;;;;;20.20;99368.00;;;;2085566;28;20278;-47
2022/04/09 02:18:15;;;;;;;4.70;2.13;;;;;20.20;99360.00;;;;2088090;28;20216;-47
2022/04/09 02:19:17;;;;;;;8.53;3.00;;;;;20.20;99369.00;;;;2088017;28;20213;-47
2022/04/09 02:20:17;;;;;;;6.00;2.90;;;;;20.20;99360.00;;;;2088190;28;20223;-47
2022/04/09 02:21:18;;;;;;;8.93;2.90;;;;;20.20;99358.00;;;;2082385;28;20241;-49
2022/04/09 02:22:19;;;;;;;5.70;2.50;;;;;20.20;99367.00;;;;2080030;28;20209;-48
2022/04/09 02:23:19;;;;;;;5.55;2.47;;;;;20.20;99365.00;;;;2087352;28;20274;-47
2022/04/09 02:24:19;;;;;;;3.03;2.10;;;;;20.20;99361.00;;;;2088146;28;20286;-47
2022/04/09 02:25:20;;;;;;;6.93;2.50;;;;;20.20;99365.00;;;;2087811;28;20219;-48
2022/04/09 02:26:20;;;;;;;4.47;2.13;;;;;20.20;99377.00;;;;2085257;28;20307;-48
2022/04/09 02:27:21;;;;;;;5.97;2.47;;;;;20.20;99366.00;;;;2079549;28;20214;-48
2022/04/09 02:28:21;;;;;;;6.73;2.53;;;;;20.20;99373.00;;;;2079896;28;20259;-47
2022/04/09 02:29:21;;;;;;;5.97;2.70;;;;;20.20;99381.00;;;;2077612;28;20296;-48
2022/04/09 02:30:22;;;;;;;4.90;2.70;;;;;20.20;99381.00;;;;2081746;28;20660;-47
2022/04/09 02:31:22;;;;;;;5.20;2.43;;;;;20.20;99386.00;;;;2087381;28;20201;-47
2022/04/09 02:32:23;;;;;;;6.20;2.70;;;;;20.20;99383.00;;;;2079812;28;20205;-47
2022/04/09 02:33:23;;;;;;;4.23;1.90;;;;;20.10;99386.00;;;;2079970;28;20212;-47
2022/04/09 02:34:23;;;;;;;6.70;2.67;;;;;20.20;99393.00;;;;2082124;28;20629;-47
2022/04/09 02:35:25;;;;;;;4.87;2.40;;;;;20.20;99398.00;;;;2079469;28;20206;-47
2022/04/09 02:36:25;;;;;;;5.72;2.22;;;;;20.20;99398.00;;;;2086496;28;20219;-47
2022/04/09 02:37:26;;;;;;;2.90;1.90;;;;;20.20;99394.00;;;;2082428;28;20252;-47
2022/04/09 02:38:26;;;;;;;5.70;2.33;;;;;20.20;99389.00;;;;2077710;28;20213;-47
2022/04/09 02:39:27;;;;;;;6.83;2.20;;;;;20.20;99390.00;;;;2079294;28;20301;-47
2022/04/09 02:40:28;;;;;;;4.20;2.30;;;;;20.20;99391.00;;;;2079588;28;20224;-47
2022/04/09 02:41:29;;;;;;;6.63;2.33;;;;;20.20;99393.00;;;;2079037;28;20670;-48
2022/04/09 02:42:29;;;;;;;6.17;2.20;;;;;20.20;99347.00;;;;2079322;28;20455;-47
2022/04/09 02:43:29;;;;;;;5.97;2.47;;;;;20.20;99408.00;;;;2082540;28;20262;-48
2022/04/09 02:44:30;;;;;;;3.10;2.13;;;;;20.10;99407.00;;;;2083714;28;20213;-47
2022/04/09 02:45:31;;;;;;;4.23;2.40;;;;;20.10;99410.00;;;;2078462;28;20209;-47
2022/04/09 02:46:31;;;;;;;4.47;2.20;;;;;20.20;99404.00;;;;2080901;28;20478;-47
2022/04/09 02:47:32;;;;;;;4.17;2.03;;;;;20.10;99412.00;;;;2095195;28;20204;-47
2022/04/09 02:48:32;;;;;;;5.03;2.40;;;;;20.10;99411.00;;;;2081754;28;20218;-48
2022/04/09 02:49:32;;;;;;;6.47;2.50;;;;;20.20;99418.00;;;;2087706;28;20582;-47
2022/04/09 02:50:33;;;;;;;7.30;2.10;;;;;20.10;99419.00;;;;2087323;28;20822;-47
2022/04/09 02:51:33;;;;;;;2.80;2.10;;;;;20.20;99426.00;;;;2079766;28;20800;-47
2022/04/09 02:52:34;;;;;;;4.60;2.20;;;;;20.20;99424.00;;;;2079573;28;20228;-47
2022/04/09 02:53:35;;;;;;;6.03;2.67;;;;;20.10;99437.00;;;;2083281;28;20686;-48
2022/04/09 02:54:35;;;;;;;3.70;2.10;;;;;20.10;99428.00;;;;2079729;28;20205;-47
2022/04/09 02:55:35;;;;;;;4.93;2.30;;;;;20.10;99433.00;;;;2081576;28;20292;-47
2022/04/09 02:56:36;;;;;;;6.30;2.63;;;;;20.10;99447.00;;;;2086360;28;20577;-47
2022/04/09 02:57:37;;;;;;;5.10;2.77;;;;;20.10;99436.00;;;;2079913;28;20690;-47
2022/04/09 02:58:37;;;;;;;6.03;2.15;;;;;20.10;99432.00;;;;2079970;28;20213;-47
2022/04/09 02:59:38;;;;;;;7.10;2.63;;;;;20.10;99438.00;;;;2080074;28;20564;-47
2022/04/09 03:00:38;;;;;;;5.30;2.60;;;;;20.10;99429.00;;;;2079719;28;20217;-47
2022/04/09 03:01:46;;;;;;;3.50;1.80;;;;;20.10;99443.00;;;;2079175;28;20221;-47
2022/04/09 03:02:46;;;;;;;5.88;2.15;;;;;20.10;99441.00;;;;2084581;28;20217;-47
2022/04/09 03:03:46;;;;;;;5.13;2.37;;;;;20.10;99443.00;;;;2078956;28;20240;-47
2022/04/09 03:04:47;;;;;;;4.90;2.13;;;;;20.10;99449.00;;;;2085922;28;20209;-47
2022/04/09 03:05:47;;;;;;;6.23;2.70;;;;;20.10;99456.00;;;;2082417;28;20271;-47
2022/04/09 03:06:47;;;;;;;7.10;2.20;;;;;20.10;99455.00;;;;2085388;28;20897;-47
2022/04/09 03:07:48;;;;;;;4.73;1.93;;;;;20.10;99456.00;;;;2082865;28;20286;-47
2022/04/09 03:08:48;;;;;;;4.00;2.20;;;;;20.10;99450.00;;;;2086851;28;20217;-47
2022/04/09 03:09:49;;;;;;;5.90;2.37;;;;;20.10;99459.00;;;;2083264;28;20248;-47
2022/04/09 03:10:49;;;;;;;5.80;2.63;;;;;20.10;99451.00;;;;2080425;28;20222;-48
2022/04/09 03:11:49;;;;;;;7.07;2.40;;;;;20.10;99456.00;;;;2081526;28;20218;-47
2022/04/09 03:12:50;;;;;;;4.87;2.07;;;;;20.10;99466.00;;;;2079066;28;20558;-47
2022/04/09 03:13:50;;;;;;;5.00;2.00;;;;;20.00;99469.00;;;;2079728;28;20288;-47
2022/04/09 03:14:50;;;;;;;5.20;2.03;;;;;20.00;99461.00;;;;2079348;28;20206;-52
2022/04/09 03:15:51;;;;;;;4.30;2.30;;;;;20.10;99457.00;;;;2079080;28;20210;-50
2022/04/09 03:16:51;;;;;;;6.13;2.40;;;;;20.10;99451.00;;;;2079332;28;20223;-48
2022/04/09 03:17:51;;;;;;;6.07;2.30;;;;;20.00;99456.00;;;;2079155;28;20210;-48
2022/04/09 03:18:52;;;;;;;6.53;2.60;;;;;20.00;99467.00;;;;2084671;28;20233;-48
2022/04/09 03:19:52;;;;;;;5.07;2.20;;;;;20.00;99468.00;;;;2087763;28;20212;-47
2022/04/09 03:20:52;;;;;;;3.40;1.87;;;;;20.00;99473.00;;;;2080970;28;20221;-48
2022/04/09 03:21:53;;;;;;;6.33;2.10;;;;;20.00;99475.00;;;;2079534;28;20202;-48
2022/04/09 03:22:53;;;;;;;3.20;1.97;;;;;20.00;99471.00;;;;2084512;28;20715;-47
2022/04/09 03:23:53;;;;;;;6.07;2.43;;;;;20.00;99472.00;;;;2081789;28;20221;-48
2022/04/09 03:25:00;;;;;;;4.40;2.17;;;;;20.00;99478.00;;;;2086022;28;20213;-47
2022/04/09 03:26:00;;;;;;;4.47;2.08;;;;;20.00;99488.00;;;;2086765;28;20212;-47
2022/04/09 03:27:01;;;;;;;3.87;2.33;;;;;20.00;99483.00;;;;2087436;28;20240;-47
2022/04/09 03:28:01;;;;;;;4.60;2.13;;;;;20.00;99476.00;;;;2087222;28;20223;-47
2022/04/09 03:29:01;;;;;;;4.83;2.13;;;;;20.00;99488.00;;;;2087553;28;20288;-47
2022/04/09 03:30:02;;;;;;;6.30;2.10;;;;;20.00;99488.00;;;;2080116;28;20209;-47
2022/04/09 03:31:02;;;;;;;3.63;2.17;;;;;20.10;99484.00;;;;2087457;28;20212;-47
2022/04/09 03:32:03;;;;;;;4.03;2.13;;;;;20.00;99485.00;;;;2087485;28;20593;-48
2022/04/09 03:33:05;;;;;;;5.20;2.40;;;;;20.00;99475.00;;;;2087459;28;20691;-47
2022/04/09 03:34:05;;;;;;;5.95;2.50;;;;;20.00;99488.00;;;;2086831;28;20336;-47
2022/04/09 03:35:06;;;;;;;6.10;2.33;;;;;20.00;99487.00;;;;2085349;28;20213;-47
2022/04/09 03:36:06;;;;;;;4.70;2.00;;;;;20.00;99490.00;;;;2078764;28;20237;-47
2022/04/09 03:37:07;;;;;;;4.63;2.40;;;;;20.00;99495.00;;;;2082643;28;20467;-47
2022/04/09 03:38:11;;;;;;;5.70;2.30;;;;;20.00;99500.00;;;;2086834;28;20217;-47
2022/04/09 03:39:11;;;;;;;4.32;2.42;;;;;20.00;99500.00;;;;2078989;28;20355;-47
2022/04/09 03:40:13;;;;;;;4.13;1.90;;;;;20.00;99504.00;;;;2086922;28;20255;-47
2022/04/09 03:41:14;;;;;;;4.45;1.95;;;;;20.00;99488.00;;;;2082502;28;20209;-47
2022/04/09 03:42:14;;;;;;;5.30;2.30;;;;;20.00;99508.00;;;;2083590;28;20656;-46
2022/04/09 03:43:14;;;;;;;6.73;2.63;;;;;20.00;99521.00;;;;2087609;28;20768;-46
2022/04/09 03:44:15;;;;;;;6.03;2.43;;;;;19.90;99516.00;;;;2087548;28;20627;-47
2022/04/09 03:45:15;;;;;;;7.70;2.80;;;;;20.00;99506.00;;;;2087293;28;20290;-46
2022/04/09 03:46:16;;;;;;;5.10;2.10;;;;;20.00;99513.00;;;;2078648;28;20206;-47
2022/04/09 03:47:16;;;;;;;4.10;1.90;;;;;20.00;99515.00;;;;2079163;28;20225;-47
2022/04/09 03:48:17;;;;;;;4.73;1.97;;;;;19.90;99520.00;;;;2082029;28;20218;-47
2022/04/09 03:49:17;;;;;;;6.00;2.43;;;;;20.00;99519.00;;;;2079981;28;20225;-47
2022/04/09 03:50:18;;;;;;;5.50;2.27;;;;;20.00;99517.00;;;;2079462;28;20267;-47
2022/04/09 03:51:18;;;;;;;5.27;2.23;;;;;20.00;99520.00;;;;2080822;28;20684;-48
2022/04/09 03:52:19;;;;;;;4.57;2.00;;;;;19.90;99515.00;;;;2087401;28;20553;-47
2022/04/09 03:53:21;;;;;;;4.73;2.13;;;;;19.90;99519.00;;;;2083824;28;20570;-47
2022/04/09 03:54:22;;;;;;;5.13;1.88;;;;;19.90;99519.00;;;;2083713;28;20213;-47
2022/04/09 03:55:22;;;;;;;3.57;1.67;;;;;19.90;99530.00;;;;2086963;28;20688;-47
2022/04/09 03:56:23;;;;;;;4.73;2.30;;;;;19.90;99512.00;;;;2087243;28;20240;-47
2022/04/09 03:57:23;;;;;;;6.50;2.23;;;;;19.90;99525.00;;;;2087305;28;20209;-48
2022/04/09 03:58:24;;;;;;;4.90;2.23;;;;;19.90;99524.00;;;;2086806;28;20814;-47
2022/04/09 03:59:24;;;;;;;4.82;2.10;;;;;19.90;99525.00;;;;2079327;28;20240;-47
2022/04/09 04:00:25;;;;;;;5.13;1.97;;;;;19.90;99522.00;;;;2085342;28;20217;-47
2022/04/09 04:01:27;;;;;;;4.70;1.77;;;;;19.90;99523.00;;;;2083973;28;20276;-47
2022/04/09 04:02:27;;;;;;;5.13;2.05;;;;;19.80;99519.00;;;;2086338;28;20208;-47
2022/04/09 04:03:28;;;;;;;5.90;2.03;;;;;19.90;99492.00;;;;2083828;28;20557;-52
2022/04/09 04:04:28;;;;;;;3.80;1.93;;;;;19.90;99526.00;;;;2084813;28;20346;-48
2022/04/09 04:05:29;;;;;;;5.23;2.10;;;;;19.90;99527.00;;;;2078523;28;20456;-48
2022/04/09 04:06:29;;;;;;;6.10;2.53;;;;;19.80;99529.00;;;;2087229;28;20209;-48
2022/04/09 04:07:30;;;;;;;6.17;2.70;;;;;19.90;99530.00;;;;2081942;28;20706;-48
2022/04/09 04:08:30;;;;;;;8.52;2.33;;;;;19.90;99534.00;;;;2085195;28;20224;-47
2022/04/09 04:09:31;;;;;;;4.90;2.17;;;;;19.90;99526.00;;;;2087415;28;20221;-48
2022/04/09 04:10:32;;;;;;;3.70;2.13;;;;;19.90;99526.00;;;;2083796;28;20216;-47
2022/04/09 04:11:33;;;;;;;5.38;2.00;;;;;19.90;99522.00;;;;2079344;28;20270;-47
2022/04/09 04:12:33;;;;;;;5.20;2.20;;;;;19.90;99531.00;;;;2086362;28;20669;-47
2022/04/09 04:13:38;;;;;;;5.27;2.20;;;;;19.90;99541.00;;;;2085663;28;20212;-47
2022/04/09 04:14:38;;;;;;;7.53;1.95;;;;;19.80;99556.00;;;;2083680;28;20201;-47
2022/04/09 04:15:40;;;;;;;6.73;2.23;;;;;19.90;99537.00;;;;2084781;28;20681;-47
2022/04/09 04:16:40;;;;;;;5.45;2.20;;;;;19.90;99544.00;;;;2079114;28;20224;-47
2022/04/09 04:17:42;;;;;;;5.43;2.30;;;;;19.80;99536.00;;;;2080108;28;20210;-47
2022/04/09 04:18:42;;;;;;;7.18;2.10;;;;;19.80;99539.00;;;;2079763;28;20218;-47
2022/04/09 04:19:42;;;;;;;5.00;2.07;;;;;19.80;99545.00;;;;2080779;28;20296;-47
2022/04/09 04:20:43;;;;;;;4.13;2.03;;;;;19.80;99541.00;;;;2086376;28;20266;-47
2022/04/09 04:21:43;;;;;;;4.60;2.00;;;;;19.80;99547.00;;;;2086570;28;20224;-47
2022/04/09 04:22:43;;;;;;;6.43;1.90;;;;;19.90;99544.00;;;;2085804;28;20245;-47
2022/04/09 04:23:44;;;;;;;5.00;2.30;;;;;19.90;99550.00;;;;2080145;28;20213;-47
2022/04/09 04:24:44;;;;;;;5.80;1.93;;;;;19.90;99555.00;;;;2086662;28;20213;-47
2022/04/09 04:25:44;;;;;;;6.70;2.10;;;;;19.80;99552.00;;;;2085696;28;20720;-47
2022/04/09 04:26:45;;;;;;;4.60;2.10;;;;;19.80;99566.00;;;;2086764;28;20732;-47
2022/04/09 04:27:46;;;;;;;4.33;2.33;;;;;19.80;99574.00;;;;2086412;28;20693;-47
2022/04/09 04:28:48;;;;;;;6.10;2.42;;;;;19.80;99567.00;;;;2080217;28;20609;-47
2022/04/09 04:29:48;;;;;;;5.30;2.08;;;;;19.80;99572.00;;;;2078410;28;20214;-47
2022/04/09 04:30:49;;;;;;;3.43;1.90;;;;;19.80;99572.00;;;;2078204;28;20764;-47
2022/04/09 04:31:49;;;;;;;3.73;1.93;;;;;19.90;99582.00;;;;2077771;28;20659;-48
2022/04/09 04:32:49;;;;;;;5.20;2.30;;;;;19.80;99578.00;;;;2078329;28;20563;-47
2022/04/09 04:33:50;;;;;;;4.07;2.00;;;;;19.80;99582.00;;;;2078915;28;20205;-48
2022/04/09 04:34:50;;;;;;;5.70;2.03;;;;;19.80;99575.00;;;;2083032;28;20209;-48
2022/04/09 04:35:50;;;;;;;5.50;2.30;;;;;19.80;99579.00;;;;2086125;28;20286;-47
2022/04/09 04:36:51;;;;;;;5.40;1.90;;;;;19.80;99585.00;;;;2087004;28;20221;-47
2022/04/09 04:37:53;;;;;;;5.50;1.90;;;;;19.80;99590.00;;;;2087086;28;20269;-47
2022/04/09 04:38:54;;;;;;;5.57;2.30;;;;;19.80;99587.00;;;;2087077;28;20216;-47
2022/04/09 04:39:54;;;;;;;4.37;1.87;;;;;19.80;99588.00;;;;2087136;28;20251;-48
2022/04/09 04:40:55;;;;;;;6.67;2.40;;;;;19.80;99585.00;;;;2084605;28;20239;-47
2022/04/09 04:41:56;;;;;;;4.97;2.60;;;;;19.80;99589.00;;;;2078715;28;20219;-47
2022/04/09 04:42:56;;;;;;;5.13;2.20;;;;;19.70;99594.00;;;;2078818;28;20228;-47
2022/04/09 04:43:56;;;;;;;4.87;1.70;;;;;19.80;99598.00;;;;2078936;28;20286;-47
2022/04/09 04:44:57;;;;;;;4.23;2.13;;;;;19.80;99595.00;;;;2078806;28;20213;-47
2022/04/09 04:45:57;;;;;;;5.67;2.10;;;;;19.80;99602.00;;;;2080853;28;20254;-47
2022/04/09 04:46:57;;;;;;;4.13;2.20;;;;;19.80;99607.00;;;;2086617;28;20262;-47
2022/04/09 04:47:58;;;;;;;4.90;2.10;;;;;19.80;99600.00;;;;2086977;28;20208;-47
2022/04/09 04:48:58;;;;;;;3.20;1.63;;;;;19.80;99602.00;;;;2087018;28;20224;-48
2022/04/09 04:50:04;;;;;;;6.37;2.40;;;;;19.80;99605.00;;;;2083470;28;20629;-48
2022/04/09 04:51:04;;;;;;;4.07;1.67;;;;;19.70;99610.00;;;;2087062;28;20266;-47
2022/04/09 04:52:06;;;;;;;4.63;2.00;;;;;19.80;99605.00;;;;2086412;28;20876;-47
2022/04/09 04:53:07;;;;;;;5.28;2.45;;;;;19.70;99607.00;;;;2079373;28;20208;-47
2022/04/09 04:54:07;;;;;;;6.10;2.37;;;;;19.60;99605.00;;;;2086846;28;20690;-48
2022/04/09 04:55:08;;;;;;;6.50;2.50;;;;;19.50;99612.00;;;;2086789;28;20228;-47
2022/04/09 04:56:09;;;;;;;5.22;2.33;;;;;19.70;99620.00;;;;2086322;28;20223;-47
2022/04/09 04:57:10;;;;;;;5.33;2.10;;;;;19.80;99615.00;;;;2086810;28;20298;-47
2022/04/09 04:58:10;;;;;;;5.30;1.93;;;;;19.70;99618.00;;;;2086962;28;20216;-47
2022/04/09 04:59:10;;;;;;;4.70;1.90;;;;;19.70;99616.00;;;;2082599;28;20510;-47
2022/04/09 05:00:11;;;;;;;5.13;2.13;;;;;19.70;99616.00;;;;2084082;28;20216;-46
2022/04/09 05:01:12;;;;;;;4.80;2.05;;;;;19.70;99620.00;;;;2086374;28;20223;-47
2022/04/09 05:02:12;;;;;;;5.13;2.27;;;;;19.70;99619.00;;;;2086770;28;20204;-46
2022/04/09 05:03:12;;;;;;;8.90;2.60;;;;;19.80;99623.00;;;;2087006;28;20201;-46
2022/04/09 05:04:13;;;;;;;5.50;2.80;;;;;19.70;99628.00;;;;2087039;28;20209;-47